createdAt,value
2018-03-29T00:04:00.000Z,97398
2018-03-29T00:09:00.000Z,97400
2018-03-29T00:14:00.000Z,97400
2018-03-29T00:19:00.000Z,97411
2018-03-29T00:24:00.000Z,97418
2018-03-29T00:29:00.000Z,97421
2018-03-29T00:34:00.000Z,97419
2018-03-29T00:39:00.000Z,97410
2018-03-29T00:44:00.000Z,97404
2018-03-29T00:49:00.000Z,97401
2018-03-29T00:54:00.000Z,97399
2018-03-29T00:59:00.000Z,97390
2018-03-29T01:04:00.000Z,97408
2018-03-29T01:09:00.000Z,97402
2018-03-29T01:14:00.000Z,97398
2018-03-29T01:19:00.000Z,97396
2018-03-29T01:24:00.000Z,97398
2018-03-29T01:30:00.000Z,97399
2018-03-29T01:35:00.000Z,97394
2018-03-29T01:40:00.000Z,97401
2018-03-29T01:45:00.000Z,97394
2018-03-29T01:50:00.000Z,97406
2018-03-29T01:55:00.000Z,97391
2018-03-29T02:00:00.000Z,97387
2018-03-29T02:05:00.000Z,97382
2018-03-29T02:10:00.000Z,97378
2018-03-29T02:15:00.000Z,97389
2018-03-29T02:20:00.000Z,97371
2018-03-29T02:25:00.000Z,97391
2018-03-29T02:30:00.000Z,97404
2018-03-29T02:35:00.000Z,97415
2018-03-29T02:40:00.000Z,97411
2018-03-29T02:45:00.000Z,97413
2018-03-29T02:50:00.000Z,97416
2018-03-29T02:55:00.000Z,97411
2018-03-29T03:00:00.000Z,97405
2018-03-29T03:05:00.000Z,97397
2018-03-29T03:10:00.000Z,97404
2018-03-29T03:15:00.000Z,97396
2018-03-29T03:20:00.000Z,97422
2018-03-29T03:25:00.000Z,97417
2018-03-29T03:30:00.000Z,97429
2018-03-29T03:35:00.000Z,97442
2018-03-29T03:40:00.000Z,97456
2018-03-29T03:45:00.000Z,97460
2018-03-29T03:50:00.000Z,97459
2018-03-29T03:55:00.000Z,97457
2018-03-29T04:00:00.000Z,97466
2018-03-29T04:05:00.000Z,97479
2018-03-29T04:10:00.000Z,97488
2018-03-29T04:15:00.000Z,97489
2018-03-29T04:20:00.000Z,97496
2018-03-29T04:25:00.000Z,97499
2018-03-29T04:30:00.000Z,97504
2018-03-29T04:35:00.000Z,97505
2018-03-29T04:40:00.000Z,97507
2018-03-29T04:45:00.000Z,97517
2018-03-29T04:50:00.000Z,97539
2018-03-29T04:55:00.000Z,97523
2018-03-29T05:00:00.000Z,97533
2018-03-29T05:05:00.000Z,97545
2018-03-29T05:10:00.000Z,97551
2018-03-29T05:15:00.000Z,97547
2018-03-29T05:20:00.000Z,97540
2018-03-29T05:25:00.000Z,97561
2018-03-29T05:30:00.000Z,97550
2018-03-29T05:35:00.000Z,97560
2018-03-29T05:40:00.000Z,97569
2018-03-29T05:45:00.000Z,97574
2018-03-29T05:50:00.000Z,97580
2018-03-29T05:55:00.000Z,97601
2018-03-29T06:00:00.000Z,97616
2018-03-29T06:05:00.000Z,97615
2018-03-29T06:10:00.000Z,97634
2018-03-29T06:15:00.000Z,97651
2018-03-29T06:20:00.000Z,97666
2018-03-29T06:25:00.000Z,97672
2018-03-29T06:30:00.000Z,97687
2018-03-29T06:35:00.000Z,97695
2018-03-29T06:40:00.000Z,97699
2018-03-29T06:45:00.000Z,97718
2018-03-29T06:50:00.000Z,97730
2018-03-29T06:55:00.000Z,97725
2018-03-29T07:00:00.000Z,97735
2018-03-29T07:05:00.000Z,97747
2018-03-29T07:10:00.000Z,97766
2018-03-29T07:15:00.000Z,97769
2018-03-29T07:21:00.000Z,97774
2018-03-29T07:26:00.000Z,97783
2018-03-29T07:31:00.000Z,97776
2018-03-29T07:36:00.000Z,97801
2018-03-29T07:41:00.000Z,97795
2018-03-29T07:46:00.000Z,97779
2018-03-29T07:51:00.000Z,97772
2018-03-29T07:56:00.000Z,97777
2018-03-29T08:01:00.000Z,97774
2018-03-29T08:06:00.000Z,97796
2018-03-29T08:11:00.000Z,97815
2018-03-29T08:16:00.000Z,97831
2018-03-29T08:21:00.000Z,97841
2018-03-29T08:26:00.000Z,97847
2018-03-29T08:31:00.000Z,97851
2018-03-29T08:36:00.000Z,97848
2018-03-29T08:41:00.000Z,97842
2018-03-29T08:46:00.000Z,97835
2018-03-29T08:51:00.000Z,97837
2018-03-29T08:56:00.000Z,97849
2018-03-29T09:01:00.000Z,97859
2018-03-29T09:06:00.000Z,97853
2018-03-29T09:11:00.000Z,97840
2018-03-29T09:16:00.000Z,97864
2018-03-29T09:21:00.000Z,97863
2018-03-29T09:26:00.000Z,97880
2018-03-29T09:31:00.000Z,97874
2018-03-29T09:36:00.000Z,97875
2018-03-29T09:41:00.000Z,97876
2018-03-29T09:46:00.000Z,97890
2018-03-29T09:51:00.000Z,97881
2018-03-29T09:56:00.000Z,97879
2018-03-29T10:01:00.000Z,97890
2018-03-29T10:06:00.000Z,97896
2018-03-29T10:11:00.000Z,97899
2018-03-29T10:16:00.000Z,97904
2018-03-29T10:21:00.000Z,97920
2018-03-29T10:26:00.000Z,97913
2018-03-29T10:31:00.000Z,97921
2018-03-29T10:36:00.000Z,97913
2018-03-29T10:41:00.000Z,97921
2018-03-29T10:46:00.000Z,97916
2018-03-29T10:51:00.000Z,97926
2018-03-29T10:56:00.000Z,97930
2018-03-29T11:01:00.000Z,97921
2018-03-29T11:06:00.000Z,97927
2018-03-29T11:11:00.000Z,97929
2018-03-29T11:16:00.000Z,97930
2018-03-29T11:21:00.000Z,97927
2018-03-29T11:26:00.000Z,97932
2018-03-29T11:31:00.000Z,97926
2018-03-29T11:36:00.000Z,97925
2018-03-29T11:41:00.000Z,97918
2018-03-29T11:46:00.000Z,97923
2018-03-29T11:51:00.000Z,97927
2018-03-29T11:56:00.000Z,97921
2018-03-29T12:01:00.000Z,97908
2018-03-29T12:06:00.000Z,97908
2018-03-29T12:11:00.000Z,97905
2018-03-29T12:16:00.000Z,97912
2018-03-29T12:21:00.000Z,97903
2018-03-29T12:26:00.000Z,97903
2018-03-29T12:31:00.000Z,97902
2018-03-29T12:36:00.000Z,97900
2018-03-29T12:41:00.000Z,97902
2018-03-29T12:46:00.000Z,97899
2018-03-29T12:51:00.000Z,97897
2018-03-29T12:56:00.000Z,97898
2018-03-29T13:01:00.000Z,97898
2018-03-29T13:06:00.000Z,97911
2018-03-29T13:11:00.000Z,97898
2018-03-29T13:16:00.000Z,97902
2018-03-29T13:22:00.000Z,97893
2018-03-29T13:27:00.000Z,97910
2018-03-29T13:32:00.000Z,97900
2018-03-29T13:37:00.000Z,97899
2018-03-29T13:42:00.000Z,97899
2018-03-29T13:47:00.000Z,97903
2018-03-29T13:52:00.000Z,97902
2018-03-29T13:57:00.000Z,97906
2018-03-29T14:02:00.000Z,97901
2018-03-29T14:07:00.000Z,97896
2018-03-29T14:12:00.000Z,97897
2018-03-29T14:17:00.000Z,97893
2018-03-29T14:22:00.000Z,97880
2018-03-29T14:27:00.000Z,97894
2018-03-29T14:32:00.000Z,97893
2018-03-29T14:37:00.000Z,97888
2018-03-29T14:42:00.000Z,97890
2018-03-29T14:47:00.000Z,97886
2018-03-29T14:52:00.000Z,97885
2018-03-29T14:57:00.000Z,97897
2018-03-29T15:02:00.000Z,97890
2018-03-29T15:07:00.000Z,97890
2018-03-29T15:12:00.000Z,97881
2018-03-29T15:17:00.000Z,97880
2018-03-29T15:22:00.000Z,97893
2018-03-29T15:27:00.000Z,97899
2018-03-29T15:32:00.000Z,97886
2018-03-29T15:37:00.000Z,97889
2018-03-29T15:42:00.000Z,97900
2018-03-29T15:47:00.000Z,97892
2018-03-29T15:52:00.000Z,97910
2018-03-29T15:57:00.000Z,97904
2018-03-29T16:02:00.000Z,97906
2018-03-29T16:07:00.000Z,97914
2018-03-29T16:12:00.000Z,97917
2018-03-29T16:17:00.000Z,97914
2018-03-29T16:22:00.000Z,97919
2018-03-29T16:27:00.000Z,97910
2018-03-29T16:32:00.000Z,97917
2018-03-29T16:37:00.000Z,97925
2018-03-29T16:42:00.000Z,97919
2018-03-29T16:47:00.000Z,97932
2018-03-29T16:52:00.000Z,97939
2018-03-29T16:57:00.000Z,97933
2018-03-29T17:02:00.000Z,97932
2018-03-29T17:07:00.000Z,97947
2018-03-29T17:12:00.000Z,97940
2018-03-29T17:17:00.000Z,97950
2018-03-29T17:22:00.000Z,97974
2018-03-29T17:27:00.000Z,97971
2018-03-29T17:32:00.000Z,98005
2018-03-29T17:37:00.000Z,98008
2018-03-29T17:42:00.000Z,98014
2018-03-29T17:47:00.000Z,98012
2018-03-29T17:52:00.000Z,98005
2018-03-29T17:57:00.000Z,98015
2018-03-29T18:02:00.000Z,98009
2018-03-29T18:07:00.000Z,98008
2018-03-29T18:12:00.000Z,98017
2018-03-29T18:17:00.000Z,98018
2018-03-29T18:22:00.000Z,98028
2018-03-29T18:27:00.000Z,98019
2018-03-29T18:32:00.000Z,98031
2018-03-29T18:37:00.000Z,98042
2018-03-29T18:42:00.000Z,98051
2018-03-29T18:47:00.000Z,98066
2018-03-29T18:53:00.000Z,98091
2018-03-29T18:58:00.000Z,98104
2018-03-29T19:03:00.000Z,98110
2018-03-29T19:08:00.000Z,98115
2018-03-29T19:13:00.000Z,98131
2018-03-29T19:18:00.000Z,98132
2018-03-29T19:23:00.000Z,98143
2018-03-29T19:28:00.000Z,98145
2018-03-29T19:33:00.000Z,98144
2018-03-29T19:38:00.000Z,98171
2018-03-29T19:43:00.000Z,98160
2018-03-29T19:48:00.000Z,98160
2018-03-29T19:53:00.000Z,98167
2018-03-29T19:58:00.000Z,98165
2018-03-29T20:03:00.000Z,98170
2018-03-29T20:08:00.000Z,98167
2018-03-29T20:13:00.000Z,98177
2018-03-29T20:18:00.000Z,98172
2018-03-29T20:23:00.000Z,98165
2018-03-29T20:28:00.000Z,98172
2018-03-29T20:33:00.000Z,98169
2018-03-29T20:38:00.000Z,98168
2018-03-29T20:43:00.000Z,98173
2018-03-29T20:48:00.000Z,98178
2018-03-29T20:53:00.000Z,98203
2018-03-29T20:58:00.000Z,98198
2018-03-29T21:03:00.000Z,98189
2018-03-29T21:08:00.000Z,98206
2018-03-29T21:13:00.000Z,98192
2018-03-29T21:18:00.000Z,98180
2018-03-29T21:23:00.000Z,98180
2018-03-29T21:28:00.000Z,98181
2018-03-29T21:33:00.000Z,98193
2018-03-29T21:38:00.000Z,98184
2018-03-29T21:43:00.000Z,98171
2018-03-29T21:48:00.000Z,98189
2018-03-29T21:53:00.000Z,98197
2018-03-29T21:58:00.000Z,98207
2018-03-29T22:03:00.000Z,98203
2018-03-29T22:08:00.000Z,98207
2018-03-29T22:13:00.000Z,98221
2018-03-29T22:18:00.000Z,98212
2018-03-29T22:23:00.000Z,98223
2018-03-29T22:28:00.000Z,98230
2018-03-29T22:33:00.000Z,98218
2018-03-29T22:38:00.000Z,98218
2018-03-29T22:43:00.000Z,98226
2018-03-29T22:48:00.000Z,98228
2018-03-29T22:53:00.000Z,98238
2018-03-29T22:58:00.000Z,98232
2018-03-29T23:03:00.000Z,98229
2018-03-29T23:08:00.000Z,98240
2018-03-29T23:13:00.000Z,98252
2018-03-29T23:18:00.000Z,98252
2018-03-29T23:23:00.000Z,98251
2018-03-29T23:28:00.000Z,98230
2018-03-29T23:33:00.000Z,98221
2018-03-29T23:38:00.000Z,98217
2018-03-29T23:43:00.000Z,98226
2018-03-29T23:48:00.000Z,98237
2018-03-29T23:53:00.000Z,98255
2018-03-29T23:58:00.000Z,98256
